sensor_id;sensor_type;location;lat;lon;timestamp;pressure;altitude;pressure_sealevel;temperature;humidity
34328;BME280;20588;48.840;10.064;2023-02-01T00:00:13;97055.25;;;3.16;nan
34328;BME280;20588;48.840;10.064;2023-02-01T00:02:39;97061.78;;;3.18;nan
34328;BME280;20588;48.840;10.064;2023-02-01T00:05:08;97060.56;;;3.22;nan
34328;BME280;20588;48.840;10.064;2023-02-01T00:07:35;97057.19;;;3.22;nan
34328;BME280;20588;48.840;10.064;2023-02-01T00:10:01;97056.91;;;3.25;nan
34328;BME280;20588;48.840;10.064;2023-02-01T00:12:29;97050.41;;;3.30;nan
34328;BME280;20588;48.840;10.064;2023-02-01T00:14:55;97048.97;;;3.28;nan
34328;BME280;20588;48.840;10.064;2023-02-01T00:17:21;97046.56;;;3.26;nan
34328;BME280;20588;48.840;10.064;2023-02-01T00:19:47;97045.00;;;3.25;nan
34328;BME280;20588;48.840;10.064;2023-02-01T00:22:13;97046.28;;;3.29;nan
34328;BME280;20588;48.840;10.064;2023-02-01T00:24:39;97044.22;;;3.33;nan
34328;BME280;20588;48.840;10.064;2023-02-01T00:27:05;97038.50;;;3.31;nan
34328;BME280;20588;48.840;10.064;2023-02-01T00:29:32;97028.16;;;3.32;nan
34328;BME280;20588;48.840;10.064;2023-02-01T00:31:58;97035.16;;;3.30;nan
34328;BME280;20588;48.840;10.064;2023-02-01T00:34:24;97022.63;;;3.37;nan
34328;BME280;20588;48.840;10.064;2023-02-01T00:36:50;97023.28;;;3.39;nan
34328;BME280;20588;48.840;10.064;2023-02-01T00:39:16;97025.81;;;3.39;nan
34328;BME280;20588;48.840;10.064;2023-02-01T00:41:43;97013.59;;;3.42;nan
34328;BME280;20588;48.840;10.064;2023-02-01T00:44:09;97009.31;;;3.43;nan
34328;BME280;20588;48.840;10.064;2023-02-01T00:46:35;97017.75;;;3.43;nan
34328;BME280;20588;48.840;10.064;2023-02-01T00:49:01;97013.44;;;3.44;nan
34328;BME280;20588;48.840;10.064;2023-02-01T00:51:29;97022.66;;;3.45;nan
34328;BME280;20588;48.840;10.064;2023-02-01T00:53:56;97013.78;;;3.49;nan
34328;BME280;20588;48.840;10.064;2023-02-01T00:56:22;97005.34;;;3.48;nan
34328;BME280;20588;48.840;10.064;2023-02-01T00:58:48;96996.78;;;3.49;nan
34328;BME280;20588;48.840;10.064;2023-02-01T01:01:18;96995.34;;;3.55;nan
34328;BME280;20588;48.840;10.064;2023-02-01T01:03:54;96992.66;;;3.56;nan
34328;BME280;20588;48.840;10.064;2023-02-01T01:06:23;96995.34;;;3.55;nan
34328;BME280;20588;48.840;10.064;2023-02-01T01:08:54;96992.66;;;3.56;nan
34328;BME280;20588;48.840;10.064;2023-02-01T01:11:30;96987.75;;;3.63;nan
34328;BME280;20588;48.840;10.064;2023-02-01T01:13:57;96975.03;;;3.63;nan
34328;BME280;20588;48.840;10.064;2023-02-01T01:16:26;96980.59;;;3.58;nan
34328;BME280;20588;48.840;10.064;2023-02-01T01:18:52;96978.66;;;3.60;nan
34328;BME280;20588;48.840;10.064;2023-02-01T01:21:19;96987.41;;;3.58;nan
34328;BME280;20588;48.840;10.064;2023-02-01T01:23:46;96978.97;;;3.57;nan
34328;BME280;20588;48.840;10.064;2023-02-01T01:26:22;96991.69;;;3.57;nan
34328;BME280;20588;48.840;10.064;2023-02-01T01:28:48;96980.59;;;3.58;nan
34328;BME280;20588;48.840;10.064;2023-02-01T01:31:16;96993.78;;;3.62;nan
34328;BME280;20588;48.840;10.064;2023-02-01T01:33:42;96988.06;;;3.60;nan
34328;BME280;20588;48.840;10.064;2023-02-01T01:36:10;96977.25;;;3.58;nan
34328;BME280;20588;48.840;10.064;2023-02-01T01:38:38;96970.41;;;3.58;nan
34328;BME280;20588;48.840;10.064;2023-02-01T01:41:04;96970.56;;;3.57;nan
34328;BME280;20588;48.840;10.064;2023-02-01T01:43:55;96952.41;;;3.52;nan
34328;BME280;20588;48.840;10.064;2023-02-01T01:46:30;96967.03;;;3.50;nan
34328;BME280;20588;48.840;10.064;2023-02-01T01:49:10;96973.69;;;3.43;nan
34328;BME280;20588;48.840;10.064;2023-02-01T01:51:43;96975.91;;;3.38;nan
34328;BME280;20588;48.840;10.064;2023-02-01T01:54:14;96973.19;;;3.39;nan
34328;BME280;20588;48.840;10.064;2023-02-01T01:56:44;96985.28;;;3.37;nan
34328;BME280;20588;48.840;10.064;2023-02-01T01:59:13;96985.59;;;3.42;nan
34328;BME280;20588;48.840;10.064;2023-02-01T02:01:39;96988.31;;;3.41;nan
34328;BME280;20588;48.840;10.064;2023-02-01T02:04:06;96973.53;;;3.44;nan
34328;BME280;20588;48.840;10.064;2023-02-01T02:06:47;96978.34;;;3.55;nan
34328;BME280;20588;48.840;10.064;2023-02-01T02:09:15;96970.38;;;3.50;nan
34328;BME280;20588;48.840;10.064;2023-02-01T02:11:42;96967.19;;;3.48;nan
34328;BME280;20588;48.840;10.064;2023-02-01T02:14:11;96964.66;;;3.48;nan
34328;BME280;20588;48.840;10.064;2023-02-01T02:22:43;96953.84;;;3.46;nan
34328;BME280;20588;48.840;10.064;2023-02-01T02:25:23;96957.81;;;3.49;nan
34328;BME280;20588;48.840;10.064;2023-02-01T02:28:20;96949.22;;;3.50;nan
34328;BME280;20588;48.840;10.064;2023-02-01T02:33:47;96946.38;;;3.53;nan
34328;BME280;20588;48.840;10.064;2023-02-01T02:36:55;96949.72;;;3.53;nan
34328;BME280;20588;48.840;10.064;2023-02-01T02:40:06;96943.84;;;3.53;nan
34328;BME280;20588;48.840;10.064;2023-02-01T02:42:27;96941.13;;;3.54;nan
34328;BME280;20588;48.840;10.064;2023-02-01T02:45:28;96944.16;;;3.58;nan
34328;BME280;20588;48.840;10.064;2023-02-01T02:48:25;96938.44;;;3.56;nan
34328;BME280;20588;48.840;10.064;2023-02-01T02:51:18;96939.72;;;3.60;nan
34328;BME280;20588;48.840;10.064;2023-02-01T02:54:14;96939.41;;;3.63;nan
34328;BME280;20588;48.840;10.064;2023-02-01T02:57:00;96928.75;;;3.59;nan
34328;BME280;20588;48.840;10.064;2023-02-01T02:59:48;96927.78;;;3.60;nan
34328;BME280;20588;48.840;10.064;2023-02-01T03:02:34;96927.63;;;3.62;nan
34328;BME280;20588;48.840;10.064;2023-02-01T03:05:19;96923.84;;;3.66;nan
34328;BME280;20588;48.840;10.064;2023-02-01T03:15:49;96917.31;;;3.71;nan
34328;BME280;20588;48.840;10.064;2023-02-01T03:18:46;96911.91;;;3.74;nan
34328;BME280;20588;48.840;10.064;2023-02-01T03:21:15;96901.56;;;3.76;nan
34328;BME280;20588;48.840;10.064;2023-02-01T03:23:43;96911.13;;;3.74;nan
34328;BME280;20588;48.840;10.064;2023-02-01T03:26:13;96923.88;;;3.74;nan
34328;BME280;20588;48.840;10.064;2023-02-01T03:28:45;96911.63;;;3.69;nan
34328;BME280;20588;48.840;10.064;2023-02-01T03:31:14;96908.41;;;3.67;nan
34328;BME280;20588;48.840;10.064;2023-02-01T03:33:40;96895.22;;;3.72;nan
34328;BME280;20588;48.840;10.064;2023-02-01T03:36:26;96892.69;;;3.72;nan
34328;BME280;20588;48.840;10.064;2023-02-01T03:39:13;96888.25;;;3.74;nan
34328;BME280;20588;48.840;10.064;2023-02-01T03:41:56;96895.22;;;3.72;nan
34328;BME280;20588;48.840;10.064;2023-02-01T03:44:48;96881.53;;;3.73;nan
34328;BME280;20588;48.840;10.064;2023-02-01T03:47:18;96884.09;;;3.73;nan
34328;BME280;20588;48.840;10.064;2023-02-01T03:50:09;96881.06;;;3.78;nan
34328;BME280;20588;48.840;10.064;2023-02-01T03:52:44;96862.63;;;3.76;nan
34328;BME280;20588;48.840;10.064;2023-02-01T03:55:13;96867.72;;;3.76;nan
34328;BME280;20588;48.840;10.064;2023-02-01T03:57:45;96864.38;;;3.75;nan
34328;BME280;20588;48.840;10.064;2023-02-01T04:00:24;96879.97;;;3.80;nan
34328;BME280;20588;48.840;10.064;2023-02-01T04:02:52;96863.75;;;3.81;nan
34328;BME280;20588;48.840;10.064;2023-02-01T04:05:19;96876.63;;;3.80;nan
34328;BME280;20588;48.840;10.064;2023-02-01T04:07:45;96876.16;;;3.84;nan
34328;BME280;20588;48.840;10.064;2023-02-01T04:10:12;96879.94;;;3.88;nan
34328;BME280;20588;48.840;10.064;2023-02-01T04:12:38;96865.66;;;3.87;nan
34328;BME280;20588;48.840;10.064;2023-02-01T04:15:05;96867.72;;;3.92;nan
34328;BME280;20588;48.840;10.064;2023-02-01T04:17:31;96862.78;;;3.90;nan
34328;BME280;20588;48.840;10.064;2023-02-01T04:19:57;96865.97;;;3.92;nan
34328;BME280;20588;48.840;10.064;2023-02-01T04:22:23;96875.03;;;3.95;nan
34328;BME280;20588;48.840;10.064;2023-02-01T04:24:50;96879.63;;;3.91;nan
34328;BME280;20588;48.840;10.064;2023-02-01T04:27:16;96878.22;;;3.89;nan
34328;BME280;20588;48.840;10.064;2023-02-01T04:29:42;96872.97;;;3.90;nan
34328;BME280;20588;48.840;10.064;2023-02-01T04:32:08;96872.16;;;3.90;nan
34328;BME280;20588;48.840;10.064;2023-02-01T04:34:34;96870.91;;;3.94;nan
34328;BME280;20588;48.840;10.064;2023-02-01T04:37:00;96879.47;;;3.93;nan
34328;BME280;20588;48.840;10.064;2023-02-01T04:39:26;96881.72;;;3.88;nan
34328;BME280;20588;48.840;10.064;2023-02-01T04:41:52;96886.00;;;3.95;nan
34328;BME280;20588;48.840;10.064;2023-02-01T04:44:18;96882.50;;;3.96;nan
34328;BME280;20588;48.840;10.064;2023-02-01T04:46:46;96892.03;;;4.02;nan
34328;BME280;20588;48.840;10.064;2023-02-01T04:49:13;96874.53;;;3.99;nan
34328;BME280;20588;48.840;10.064;2023-02-01T04:51:40;96878.84;;;3.99;nan
34328;BME280;20588;48.840;10.064;2023-02-01T04:54:07;96862.13;;;3.96;nan
34328;BME280;20588;48.840;10.064;2023-02-01T04:56:34;96860.56;;;3.95;nan
34328;BME280;20588;48.840;10.064;2023-02-01T04:59:03;96869.78;;;3.96;nan
34328;BME280;20588;48.840;10.064;2023-02-01T05:01:29;96861.19;;;3.97;nan
34328;BME280;20588;48.840;10.064;2023-02-01T05:03:56;96872.16;;;3.98;nan
34328;BME280;20588;48.840;10.064;2023-02-01T05:06:22;96873.75;;;3.99;nan
34328;BME280;20588;48.840;10.064;2023-02-01T05:08:48;96872.16;;;3.98;nan
34328;BME280;20588;48.840;10.064;2023-02-01T05:11:14;96881.38;;;4.07;nan
34328;BME280;20588;48.840;10.064;2023-02-01T05:13:59;96869.13;;;4.10;nan
34328;BME280;20588;48.840;10.064;2023-02-01T05:16:26;96882.19;;;4.07;nan
34328;BME280;20588;48.840;10.064;2023-02-01T05:18:52;96874.06;;;4.12;nan
34328;BME280;20588;48.840;10.064;2023-02-01T05:21:18;96879.47;;;4.09;nan
34328;BME280;20588;48.840;10.064;2023-02-01T05:23:44;96880.09;;;4.11;nan
34328;BME280;20588;48.840;10.064;2023-02-01T05:26:29;96881.38;;;4.07;nan
34328;BME280;20588;48.840;10.064;2023-02-01T05:28:55;96876.13;;;4.08;nan
34328;BME280;20588;48.840;10.064;2023-02-01T05:31:21;96879.63;;;4.15;nan
34328;BME280;20588;48.840;10.064;2023-02-01T05:33:47;96889.63;;;4.17;nan
34328;BME280;20588;48.840;10.064;2023-02-01T05:36:14;96877.88;;;4.16;nan
34328;BME280;20588;48.840;10.064;2023-02-01T05:38:40;96878.03;;;4.22;nan
34328;BME280;20588;48.840;10.064;2023-02-01T05:41:07;96883.91;;;4.23;nan
34328;BME280;20588;48.840;10.064;2023-02-01T05:43:33;96893.78;;;4.18;nan
34328;BME280;20588;48.840;10.064;2023-02-01T05:45:59;96874.53;;;4.23;nan
34328;BME280;20588;48.840;10.064;2023-02-01T05:48:25;96864.81;;;4.19;nan
34328;BME280;20588;48.840;10.064;2023-02-01T05:50:51;96865.63;;;4.19;nan
34328;BME280;20588;48.840;10.064;2023-02-01T05:53:17;96874.53;;;4.15;nan
34328;BME280;20588;48.840;10.064;2023-02-01T05:55:43;96863.69;;;4.21;nan
34328;BME280;20588;48.840;10.064;2023-02-01T05:58:09;96875.16;;;4.17;nan
34328;BME280;20588;48.840;10.064;2023-02-01T06:00:35;96879.78;;;4.14;nan
34328;BME280;20588;48.840;10.064;2023-02-01T06:03:01;96888.69;;;4.18;nan
34328;BME280;20588;48.840;10.064;2023-02-01T06:05:27;96891.38;;;4.24;nan
34328;BME280;20588;48.840;10.064;2023-02-01T06:07:53;96890.28;;;4.19;nan
34328;BME280;20588;48.840;10.064;2023-02-01T06:10:19;96893.78;;;4.18;nan
34328;BME280;20588;48.840;10.064;2023-02-01T06:12:46;96889.03;;;4.15;nan
34328;BME280;20588;48.840;10.064;2023-02-01T06:15:13;96895.53;;;4.17;nan
34328;BME280;20588;48.840;10.064;2023-02-01T06:17:42;96883.59;;;4.18;nan
34328;BME280;20588;48.840;10.064;2023-02-01T06:20:09;96885.19;;;4.19;nan
34328;BME280;20588;48.840;10.064;2023-02-01T06:22:36;96882.81;;;4.17;nan
34328;BME280;20588;48.840;10.064;2023-02-01T06:25:03;96885.19;;;4.19;nan
34328;BME280;20588;48.840;10.064;2023-02-01T06:27:29;96881.03;;;4.26;nan
34328;BME280;20588;48.840;10.064;2023-02-01T06:29:56;96879.28;;;4.26;nan
34328;BME280;20588;48.840;10.064;2023-02-01T06:32:22;96874.53;;;4.23;nan
34328;BME280;20588;48.840;10.064;2023-02-01T06:34:49;96868.94;;;4.28;nan
34328;BME280;20588;48.840;10.064;2023-02-01T06:37:15;96859.56;;;4.28;nan
34328;BME280;20588;48.840;10.064;2023-02-01T06:39:41;96858.59;;;4.21;nan
34328;BME280;20588;48.840;10.064;2023-02-01T06:42:07;96858.28;;;4.24;nan
34328;BME280;20588;48.840;10.064;2023-02-01T06:44:33;96857.81;;;4.21;nan
34328;BME280;20588;48.840;10.064;2023-02-01T06:46:59;96866.88;;;4.23;nan
34328;BME280;20588;48.840;10.064;2023-02-01T06:49:25;96860.81;;;4.24;nan
34328;BME280;20588;48.840;10.064;2023-02-01T06:51:51;96869.25;;;4.25;nan
34328;BME280;20588;48.840;10.064;2023-02-01T06:54:17;96869.59;;;4.22;nan
34328;BME280;20588;48.840;10.064;2023-02-01T06:56:43;96866.25;;;4.21;nan
34328;BME280;20588;48.840;10.064;2023-02-01T06:59:10;96869.25;;;4.25;nan
34328;BME280;20588;48.840;10.064;2023-02-01T07:01:37;96869.09;;;4.26;nan
34328;BME280;20588;48.840;10.064;2023-02-01T07:04:03;96884.66;;;4.39;nan
34328;BME280;20588;48.840;10.064;2023-02-01T07:06:29;96896.78;;;4.37;nan
34328;BME280;20588;48.840;10.064;2023-02-01T07:08:55;96891.22;;;4.34;nan
34328;BME280;20588;48.840;10.064;2023-02-01T07:11:22;96908.56;;;4.30;nan
34328;BME280;20588;48.840;10.064;2023-02-01T07:13:49;96907.13;;;4.36;nan
34328;BME280;20588;48.840;10.064;2023-02-01T07:16:17;96921.94;;;4.32;nan
34328;BME280;20588;48.840;10.064;2023-02-01T07:18:44;96908.41;;;4.32;nan
34328;BME280;20588;48.840;10.064;2023-02-01T07:21:10;96906.66;;;4.40;nan
34328;BME280;20588;48.840;10.064;2023-02-01T07:23:37;96916.84;;;4.40;nan
34328;BME280;20588;48.840;10.064;2023-02-01T07:26:05;96924.31;;;4.42;nan
34328;BME280;20588;48.840;10.064;2023-02-01T07:28:34;96927.19;;;4.39;nan
34328;BME280;20588;48.840;10.064;2023-02-01T07:31:05;96927.34;;;4.37;nan
34328;BME280;20588;48.840;10.064;2023-02-01T07:33:32;96929.91;;;4.37;nan
34328;BME280;20588;48.840;10.064;2023-02-01T07:35:59;96931.31;;;4.32;nan
34328;BME280;20588;48.840;10.064;2023-02-01T07:38:26;96934.50;;;4.34;nan
34328;BME280;20588;48.840;10.064;2023-02-01T07:41:00;96931.47;;;4.30;nan
34328;BME280;20588;48.840;10.064;2023-02-01T07:43:27;96929.09;;;4.29;nan
34328;BME280;20588;48.840;10.064;2023-02-01T07:45:54;96935.97;;;4.28;nan
34328;BME280;20588;48.840;10.064;2023-02-01T07:48:21;96936.59;;;4.22;nan
34328;BME280;20588;48.840;10.064;2023-02-01T07:50:47;96943.75;;;4.27;nan
34328;BME280;20588;48.840;10.064;2023-02-01T07:53:13;96936.13;;;4.27;nan
34328;BME280;20588;48.840;10.064;2023-02-01T07:55:40;96935.00;;;4.37;nan
34328;BME280;20588;48.840;10.064;2023-02-01T07:58:06;96932.78;;;4.34;nan
34328;BME280;20588;48.840;10.064;2023-02-01T08:00:32;96928.28;;;4.36;nan
34328;BME280;20588;48.840;10.064;2023-02-01T08:03:17;96934.03;;;4.38;nan
34328;BME280;20588;48.840;10.064;2023-02-01T08:05:43;96931.47;;;4.38;nan
34328;BME280;20588;48.840;10.064;2023-02-01T08:08:09;96916.19;;;4.46;nan
34328;BME280;20588;48.840;10.064;2023-02-01T08:10:36;96919.88;;;4.44;nan
34328;BME280;20588;48.840;10.064;2023-02-01T08:13:03;96922.09;;;4.39;nan
34328;BME280;20588;48.840;10.064;2023-02-01T08:15:29;96934.50;;;4.34;nan
34328;BME280;20588;48.840;10.064;2023-02-01T08:17:56;96932.78;;;4.34;nan
34328;BME280;20588;48.840;10.064;2023-02-01T08:20:23;96935.31;;;4.34;nan
34328;BME280;20588;48.840;10.064;2023-02-01T08:22:50;96927.97;;;4.39;nan
34328;BME280;20588;48.840;10.064;2023-02-01T08:25:16;96921.63;;;4.43;nan
34328;BME280;20588;48.840;10.064;2023-02-01T08:27:42;96921.44;;;4.45;nan
34328;BME280;20588;48.840;10.064;2023-02-01T08:30:09;96927.19;;;4.47;nan
34328;BME280;20588;48.840;10.064;2023-02-01T08:32:35;96937.50;;;4.53;nan
34328;BME280;20588;48.840;10.064;2023-02-01T08:35:02;96928.28;;;4.60;nan
34328;BME280;20588;48.840;10.064;2023-02-01T08:37:28;96932.06;;;4.64;nan
34328;BME280;20588;48.840;10.064;2023-02-01T08:39:54;96937.34;;;4.63;nan
34328;BME280;20588;48.840;10.064;2023-02-01T08:42:20;96944.19;;;4.62;nan
34328;BME280;20588;48.840;10.064;2023-02-01T08:45:06;96921.13;;;4.56;nan
34328;BME280;20588;48.840;10.064;2023-02-01T08:47:34;96929.41;;;4.50;nan
34328;BME280;20588;48.840;10.064;2023-02-01T08:50:00;96934.97;;;4.53;nan
34328;BME280;20588;48.840;10.064;2023-02-01T08:52:27;96929.75;;;4.47;nan
34328;BME280;20588;48.840;10.064;2023-02-01T08:54:53;96939.75;;;4.48;nan
34328;BME280;20588;48.840;10.064;2023-02-01T08:57:19;96947.09;;;4.51;nan
34328;BME280;20588;48.840;10.064;2023-02-01T08:59:45;96948.06;;;4.42;nan
34328;BME280;20588;48.840;10.064;2023-02-01T09:02:15;96950.44;;;4.44;nan
34328;BME280;20588;48.840;10.064;2023-02-01T09:04:42;96952.00;;;4.37;nan
34328;BME280;20588;48.840;10.064;2023-02-01T09:07:09;96949.31;;;4.30;nan
34328;BME280;20588;48.840;10.064;2023-02-01T09:09:36;96951.22;;;4.36;nan
34328;BME280;20588;48.840;10.064;2023-02-01T09:12:02;96965.41;;;4.31;nan
34328;BME280;20588;48.840;10.064;2023-02-01T09:14:29;96966.19;;;4.39;nan
34328;BME280;20588;48.840;10.064;2023-02-01T09:16:55;96960.16;;;4.40;nan
34328;BME280;20588;48.840;10.064;2023-02-01T09:19:21;96955.69;;;4.42;nan
34328;BME280;20588;48.840;10.064;2023-02-01T09:21:47;96960.59;;;4.52;nan
34328;BME280;20588;48.840;10.064;2023-02-01T09:24:13;96961.06;;;4.63;nan
34328;BME280;20588;48.840;10.064;2023-02-01T09:26:39;96950.84;;;4.79;nan
34328;BME280;20588;48.840;10.064;2023-02-01T09:29:06;96970.09;;;4.90;nan
34328;BME280;20588;48.840;10.064;2023-02-01T09:31:39;96948.03;;;5.05;nan
34328;BME280;20588;48.840;10.064;2023-02-01T09:34:05;96943.75;;;5.05;nan
34328;BME280;20588;48.840;10.064;2023-02-01T09:36:32;96950.56;;;5.21;nan
34328;BME280;20588;48.840;10.064;2023-02-01T09:38:58;96947.28;;;5.35;nan
34328;BME280;20588;48.840;10.064;2023-02-01T09:46:54;96956.00;;;5.48;nan
34328;BME280;20588;48.840;10.064;2023-02-01T09:49:35;96949.84;;;5.35;nan
34328;BME280;20588;48.840;10.064;2023-02-01T09:52:05;96964.69;;;5.31;nan
34328;BME280;20588;48.840;10.064;2023-02-01T09:54:54;96974.75;;;5.25;nan
34328;BME280;20588;48.840;10.064;2023-02-01T09:57:33;96980.69;;;5.17;nan
34328;BME280;20588;48.840;10.064;2023-02-01T10:00:17;96978.31;;;5.16;nan
34328;BME280;20588;48.840;10.064;2023-02-01T10:02:44;96981.69;;;5.08;nan
34328;BME280;20588;48.840;10.064;2023-02-01T10:05:18;96981.19;;;5.13;nan
34328;BME280;20588;48.840;10.064;2023-02-01T10:10:40;96985.03;;;5.47;nan
34328;BME280;20588;48.840;10.064;2023-02-01T10:13:43;96989.81;;;5.50;nan
34328;BME280;20588;48.840;10.064;2023-02-01T10:19:02;97000.31;;;5.55;nan
34328;BME280;20588;48.840;10.064;2023-02-01T10:27:12;96989.63;;;5.52;nan
34328;BME280;20588;48.840;10.064;2023-02-01T10:29:44;96999.50;;;5.55;nan
34328;BME280;20588;48.840;10.064;2023-02-01T10:32:20;96989.78;;;5.58;nan
34328;BME280;20588;48.840;10.064;2023-02-01T10:34:58;97008.31;;;5.52;nan
34328;BME280;20588;48.840;10.064;2023-02-01T10:39:56;97018.31;;;5.93;nan
34328;BME280;20588;48.840;10.064;2023-02-01T10:42:25;97014.84;;;6.16;nan
34328;BME280;20588;48.840;10.064;2023-02-01T10:44:54;97017.22;;;6.18;nan
34328;BME280;20588;48.840;10.064;2023-02-01T10:47:21;97023.34;;;7.05;nan
34328;BME280;20588;48.840;10.064;2023-02-01T10:49:57;97022.94;;;7.31;nan
34328;BME280;20588;48.840;10.064;2023-02-01T10:54:56;97024.25;;;7.92;nan
34328;BME280;20588;48.840;10.064;2023-02-01T10:57:34;97012.94;;;7.86;nan
34328;BME280;20588;48.840;10.064;2023-02-01T11:00:06;97020.41;;;7.67;nan
34328;BME280;20588;48.840;10.064;2023-02-01T11:02:44;97018.38;;;7.62;nan
34328;BME280;20588;48.840;10.064;2023-02-01T11:05:11;97011.09;;;7.95;nan
34328;BME280;20588;48.840;10.064;2023-02-01T11:07:39;97005.41;;;7.99;nan
34328;BME280;20588;48.840;10.064;2023-02-01T11:10:35;97016.38;;;7.43;nan
34328;BME280;20588;48.840;10.064;2023-02-01T11:13:03;97013.72;;;6.93;nan
34328;BME280;20588;48.840;10.064;2023-02-01T11:15:30;97014.69;;;6.55;nan
34328;BME280;20588;48.840;10.064;2023-02-01T11:17:56;97014.88;;;6.31;nan
34328;BME280;20588;48.840;10.064;2023-02-01T11:20:39;97017.91;;;6.12;nan
34328;BME280;20588;48.840;10.064;2023-02-01T11:23:14;97004.88;;;5.99;nan
34328;BME280;20588;48.840;10.064;2023-02-01T11:25:48;97010.84;;;5.91;nan
34328;BME280;20588;48.840;10.064;2023-02-01T11:28:15;97001.94;;;5.87;nan
34328;BME280;20588;48.840;10.064;2023-02-01T11:30:43;96994.78;;;5.83;nan
34328;BME280;20588;48.840;10.064;2023-02-01T11:33:16;96986.63;;;5.79;nan
34328;BME280;20588;48.840;10.064;2023-02-01T11:35:44;96985.03;;;5.78;nan
34328;BME280;20588;48.840;10.064;2023-02-01T11:38:31;96985.66;;;5.80;nan
34328;BME280;20588;48.840;10.064;2023-02-01T11:43:51;96988.09;;;5.74;nan
34328;BME280;20588;48.840;10.064;2023-02-01T11:46:19;96984.59;;;5.67;nan
34328;BME280;20588;48.840;10.064;2023-02-01T11:48:52;96979.22;;;5.62;nan
34328;BME280;20588;48.840;10.064;2023-02-01T11:59:55;96969.72;;;5.47;nan
34328;BME280;20588;48.840;10.064;2023-02-01T12:02:51;96979.78;;;5.41;nan
34328;BME280;20588;48.840;10.064;2023-02-01T12:17:37;96951.78;;;5.33;nan
34328;BME280;20588;48.840;10.064;2023-02-01T12:28:23;96933.44;;;5.91;nan
34328;BME280;20588;48.840;10.064;2023-02-01T12:31:19;96942.06;;;5.90;nan
34328;BME280;20588;48.840;10.064;2023-02-01T12:36:42;96933.72;;;5.96;nan
34328;BME280;20588;48.840;10.064;2023-02-01T12:42:01;96937.63;;;5.84;nan
34328;BME280;20588;48.840;10.064;2023-02-01T12:47:24;96924.13;;;5.98;nan
34328;BME280;20588;48.840;10.064;2023-02-01T12:49:58;96928.22;;;6.07;nan
34328;BME280;20588;48.840;10.064;2023-02-01T12:52:39;96921.00;;;6.10;nan
34328;BME280;20588;48.840;10.064;2023-02-01T12:58:02;96926.28;;;6.09;nan
34328;BME280;20588;48.840;10.064;2023-02-01T13:00:37;96926.63;;;6.06;nan
34328;BME280;20588;48.840;10.064;2023-02-01T13:08:48;96914.31;;;5.87;nan
34328;BME280;20588;48.840;10.064;2023-02-01T13:11:34;96912.56;;;5.87;nan
34328;BME280;20588;48.840;10.064;2023-02-01T13:14:36;96923.13;;;5.84;nan
34328;BME280;20588;48.840;10.064;2023-02-01T13:17:16;96925.03;;;5.74;nan
34328;BME280;20588;48.840;10.064;2023-02-01T13:25:34;96927.75;;;5.50;nan
34328;BME280;20588;48.840;10.064;2023-02-01T13:28:14;96920.09;;;5.50;nan
34328;BME280;20588;48.840;10.064;2023-02-01T13:36:26;96907.19;;;5.74;nan
34328;BME280;20588;48.840;10.064;2023-02-01T13:41:54;96903.81;;;5.82;nan
34328;BME280;20588;48.840;10.064;2023-02-01T13:44:30;96905.31;;;5.68;nan
34328;BME280;20588;48.840;10.064;2023-02-01T13:47:03;96907.53;;;5.71;nan
34328;BME280;20588;48.840;10.064;2023-02-01T13:49:39;96918.19;;;5.83;nan
34328;BME280;20588;48.840;10.064;2023-02-01T13:52:17;96912.09;;;5.84;nan
34328;BME280;20588;48.840;10.064;2023-02-01T13:54:49;96903.25;;;5.94;nan
34328;BME280;20588;48.840;10.064;2023-02-01T13:57:39;96910.72;;;5.96;nan
34328;BME280;20588;48.840;10.064;2023-02-01T14:01:13;96899.47;;;5.90;nan
34328;BME280;20588;48.840;10.064;2023-02-01T14:10:52;96905.25;;;5.76;nan
34328;BME280;20588;48.840;10.064;2023-02-01T14:32:04;96903.00;;;5.58;nan
34328;BME280;20588;48.840;10.064;2023-02-01T14:34:51;96909.00;;;5.66;nan
34328;BME280;20588;48.840;10.064;2023-02-01T14:47:51;96914.88;;;5.43;nan
34328;BME280;20588;48.840;10.064;2023-02-01T15:01:17;96927.03;;;5.33;nan
34328;BME280;20588;48.840;10.064;2023-02-01T15:07:11;96924.22;;;5.28;nan
34328;BME280;20588;48.840;10.064;2023-02-01T15:09:34;96915.47;;;5.23;nan
34328;BME280;20588;48.840;10.064;2023-02-01T15:17:35;96931.56;;;5.23;nan
34328;BME280;20588;48.840;10.064;2023-02-01T15:20:18;96931.97;;;5.35;nan
34328;BME280;20588;48.840;10.064;2023-02-01T15:25:27;96917.09;;;5.16;nan
34328;BME280;20588;48.840;10.064;2023-02-01T15:27:54;96930.81;;;5.15;nan
34328;BME280;20588;48.840;10.064;2023-02-01T15:30:27;96939.09;;;5.09;nan
34328;BME280;20588;48.840;10.064;2023-02-01T15:35:46;96946.31;;;5.05;nan
34328;BME280;20588;48.840;10.064;2023-02-01T15:46:31;96932.31;;;4.93;nan
34328;BME280;20588;48.840;10.064;2023-02-01T15:48:58;96932.66;;;4.90;nan
34328;BME280;20588;48.840;10.064;2023-02-01T15:51:26;96929.13;;;4.91;nan
34328;BME280;20588;48.840;10.064;2023-02-01T15:53:58;96926.28;;;4.86;nan
34328;BME280;20588;48.840;10.064;2023-02-01T15:56:37;96933.16;;;4.86;nan
34328;BME280;20588;48.840;10.064;2023-02-01T15:59:16;96937.44;;;4.85;nan
34328;BME280;20588;48.840;10.064;2023-02-01T16:01:43;96944.44;;;4.91;nan
34328;BME280;20588;48.840;10.064;2023-02-01T16:04:19;96953.38;;;4.87;nan
34328;BME280;20588;48.840;10.064;2023-02-01T16:06:59;96949.53;;;4.83;nan
34328;BME280;20588;48.840;10.064;2023-02-01T16:09:53;96951.28;;;4.91;nan
34328;BME280;20588;48.840;10.064;2023-02-01T16:12:45;96955.88;;;4.95;nan
34328;BME280;20588;48.840;10.064;2023-02-01T16:15:12;96953.66;;;4.92;nan
34328;BME280;20588;48.840;10.064;2023-02-01T16:17:38;96950.00;;;4.95;nan
34328;BME280;20588;48.840;10.064;2023-02-01T16:20:05;96947.16;;;4.90;nan
34328;BME280;20588;48.840;10.064;2023-02-01T16:22:31;96953.97;;;4.97;nan
34328;BME280;20588;48.840;10.064;2023-02-01T16:24:57;96946.97;;;4.91;nan
34328;BME280;20588;48.840;10.064;2023-02-01T16:27:23;96947.78;;;4.92;nan
34328;BME280;20588;48.840;10.064;2023-02-01T16:29:49;96943.19;;;4.87;nan
34328;BME280;20588;48.840;10.064;2023-02-01T16:32:20;96946.00;;;5.00;nan
34328;BME280;20588;48.840;10.064;2023-02-01T16:34:47;96951.41;;;4.97;nan